createdAt,value
2022-09-30T00:01:04.647Z,6.63
2022-09-30T00:03:31.072Z,6.61
2022-09-30T00:06:07.910Z,6.60
2022-09-30T00:08:36.258Z,6.51
2022-09-30T00:11:16.234Z,6.44
2022-09-30T00:13:44.232Z,6.32
2022-09-30T00:16:12.478Z,6.36
2022-09-30T00:18:39.663Z,6.41
2022-09-30T00:21:08.240Z,6.29
2022-09-30T00:23:36.542Z,6.27
2022-09-30T00:26:06.317Z,6.20
2022-09-30T00:28:33.608Z,6.13
2022-09-30T00:31:02.091Z,6.16
2022-09-30T00:33:29.260Z,6.23
2022-09-30T00:35:55.664Z,6.26
2022-09-30T00:38:22.593Z,6.29
2022-09-30T00:40:49.951Z,6.28
2022-09-30T00:43:20.259Z,6.27
2022-09-30T00:45:56.897Z,6.26
2022-09-30T00:48:30.729Z,6.23
2022-09-30T00:50:58.261Z,6.27
2022-09-30T00:53:35.053Z,6.26
2022-09-30T00:56:10.137Z,6.16
2022-09-30T00:58:43.483Z,6.10
2022-09-30T01:01:10.613Z,6.05
2022-09-30T01:03:42.803Z,6.11
2022-09-30T01:06:09.316Z,6.05
2022-09-30T01:08:38.917Z,6.07
2022-09-30T01:11:08.166Z,6.10
2022-09-30T01:13:37.180Z,6.07
2022-09-30T01:16:28.297Z,6.00
2022-09-30T01:19:16.739Z,6.04
2022-09-30T01:22:20.855Z,6.03
2022-09-30T01:25:15.532Z,5.94
2022-09-30T01:28:03.799Z,5.94
2022-09-30T01:30:57.017Z,5.97
2022-09-30T01:33:32.552Z,5.98
2022-09-30T01:36:23.771Z,5.86
2022-09-30T01:39:09.909Z,5.88
2022-09-30T01:41:53.034Z,5.87
2022-09-30T01:44:33.321Z,5.86
2022-09-30T01:47:13.598Z,5.93
2022-09-30T01:49:51.701Z,5.94
2022-09-30T01:52:30.091Z,5.97
2022-09-30T01:55:07.276Z,5.97
2022-09-30T01:57:45.528Z,6.00
2022-09-30T02:00:13.810Z,6.02
2022-09-30T02:02:49.096Z,5.92
2022-09-30T02:05:42.778Z,5.81
2022-09-30T02:08:33.495Z,5.80
2022-09-30T02:11:09.024Z,5.78
2022-09-30T02:14:00.807Z,5.75
2022-09-30T02:16:56.596Z,5.67
2022-09-30T02:19:30.444Z,5.75
2022-09-30T02:22:13.255Z,5.74
2022-09-30T02:24:40.902Z,5.81
2022-09-30T02:27:13.265Z,5.84
2022-09-30T02:29:45.582Z,5.86
2022-09-30T02:32:18.552Z,5.86
2022-09-30T02:34:54.024Z,5.81
2022-09-30T02:37:28.291Z,5.83
2022-09-30T02:40:11.727Z,5.80
2022-09-30T02:42:40.995Z,5.83
2022-09-30T02:45:11.506Z,5.73
2022-09-30T02:48:12.800Z,5.68
2022-09-30T02:50:58.467Z,5.58
2022-09-30T02:53:52.731Z,5.46
2022-09-30T02:56:40.080Z,5.45
2022-09-30T02:59:06.529Z,5.45
2022-09-30T03:01:33.107Z,5.51
2022-09-30T03:04:07.990Z,5.50
2022-09-30T03:06:36.366Z,5.57
2022-09-30T03:09:03.766Z,5.61
2022-09-30T03:11:31.975Z,5.63
2022-09-30T03:14:34.560Z,5.60
2022-09-30T03:17:10.149Z,5.62
2022-09-30T03:20:01.565Z,5.65
2022-09-30T03:22:57.030Z,5.60
2022-09-30T03:25:44.686Z,5.46
2022-09-30T03:28:22.810Z,5.43
2022-09-30T03:31:00.399Z,5.33
2022-09-30T03:33:39.791Z,5.29
2022-09-30T03:36:18.443Z,5.30
2022-09-30T03:38:57.376Z,5.33
2022-09-30T03:41:35.458Z,5.35
2022-09-30T03:44:24.079Z,5.31
2022-09-30T03:47:02.783Z,5.31
2022-09-30T03:49:37.578Z,5.33
2022-09-30T03:52:09.348Z,5.35
2022-09-30T03:55:03.833Z,5.31
2022-09-30T03:57:30.701Z,5.32
2022-09-30T03:59:58.252Z,5.29
2022-09-30T04:02:25.623Z,5.19
2022-09-30T04:04:52.229Z,5.22
2022-09-30T04:07:19.127Z,5.15
2022-09-30T04:09:45.671Z,5.22
2022-09-30T04:12:12.119Z,5.28
2022-09-30T04:14:38.587Z,5.32
2022-09-30T04:17:05.989Z,5.35
2022-09-30T04:19:38.002Z,5.38
2022-09-30T04:22:04.452Z,5.32
2022-09-30T04:24:30.862Z,5.33
2022-09-30T04:26:57.444Z,5.28
2022-09-30T04:29:24.138Z,5.27
2022-09-30T04:31:50.697Z,5.27
2022-09-30T04:34:17.187Z,5.19
2022-09-30T04:36:43.673Z,5.16
2022-09-30T04:39:10.299Z,5.12
2022-09-30T04:41:36.755Z,5.14
2022-09-30T04:44:06.341Z,5.14
2022-09-30T04:46:34.466Z,5.19
2022-09-30T04:49:00.981Z,5.22
2022-09-30T04:51:27.520Z,5.25
2022-09-30T04:53:53.988Z,5.27
2022-09-30T04:56:20.453Z,5.29
2022-09-30T04:58:47.219Z,5.24
2022-09-30T05:01:16.479Z,5.24
2022-09-30T05:03:43.426Z,5.27
2022-09-30T05:06:10.908Z,5.26
2022-09-30T05:08:38.853Z,5.27
2022-09-30T05:11:12.148Z,5.17
2022-09-30T05:13:40.472Z,5.11
2022-09-30T05:16:09.243Z,5.08
2022-09-30T05:18:36.148Z,5.06
2022-09-30T05:21:04.170Z,5.06
2022-09-30T05:23:31.957Z,5.11
2022-09-30T05:25:59.548Z,5.11
2022-09-30T05:28:26.004Z,5.19
2022-09-30T05:31:01.246Z,5.22
2022-09-30T05:33:29.505Z,5.23
2022-09-30T05:35:59.688Z,5.19
2022-09-30T05:38:26.783Z,5.10
2022-09-30T05:40:54.380Z,5.12
2022-09-30T05:43:20.854Z,5.07
2022-09-30T05:45:54.803Z,5.03
2022-09-30T05:48:21.820Z,5.02
2022-09-30T05:50:52.835Z,5.06
2022-09-30T05:53:19.318Z,5.07
2022-09-30T05:55:47.483Z,5.13
2022-09-30T05:58:15.467Z,5.15
2022-09-30T06:00:43.364Z,5.19
2022-09-30T06:03:09.925Z,5.25
2022-09-30T06:05:37.343Z,5.29
2022-09-30T06:08:04.382Z,5.33
2022-09-30T06:10:30.808Z,5.37
2022-09-30T06:12:59.079Z,5.39
2022-09-30T06:15:26.908Z,5.38
2022-09-30T06:17:53.999Z,5.44
2022-09-30T06:20:20.756Z,5.45
2022-09-30T06:22:47.526Z,5.47
2022-09-30T06:25:14.590Z,5.49
2022-09-30T06:27:44.635Z,5.52
2022-09-30T06:30:11.362Z,5.57
2022-09-30T06:32:37.842Z,5.60
2022-09-30T06:35:04.474Z,5.67
2022-09-30T06:37:30.903Z,5.69
2022-09-30T06:39:57.328Z,5.71
2022-09-30T06:42:24.933Z,5.75
2022-09-30T06:44:53.424Z,5.79
2022-09-30T06:47:25.602Z,5.82
2022-09-30T06:49:53.023Z,5.86
2022-09-30T06:52:20.080Z,5.90
2022-09-30T06:54:46.973Z,5.94
2022-09-30T06:57:13.660Z,6.00
2022-09-30T06:59:40.066Z,6.05
2022-09-30T07:02:06.638Z,6.08
2022-09-30T07:04:33.119Z,6.12
2022-09-30T07:06:59.586Z,6.15
2022-09-30T07:09:26.217Z,6.18
2022-09-30T07:11:52.773Z,6.22
2022-09-30T07:14:19.234Z,6.25
2022-09-30T07:16:46.454Z,6.28
2022-09-30T07:19:12.952Z,6.30
2022-09-30T07:21:39.370Z,6.32
2022-09-30T07:24:05.988Z,6.35
2022-09-30T07:26:33.336Z,6.38
2022-09-30T07:29:00.261Z,6.43
2022-09-30T07:31:32.851Z,6.49
2022-09-30T07:34:00.338Z,6.56
2022-09-30T07:36:32.609Z,6.60
2022-09-30T07:39:00.287Z,6.63
2022-09-30T07:41:29.016Z,6.63
2022-09-30T07:43:57.359Z,6.62
2022-09-30T07:46:29.716Z,6.67
2022-09-30T07:48:59.236Z,6.72
2022-09-30T07:51:31.661Z,6.77
2022-09-30T07:54:01.355Z,6.81
2022-09-30T07:56:41.080Z,6.84
2022-09-30T07:59:16.538Z,6.85
2022-09-30T08:01:43.516Z,6.87
2022-09-30T08:04:11.487Z,6.91
2022-09-30T08:06:40.619Z,6.92
2022-09-30T08:09:07.977Z,6.95
2022-09-30T08:11:36.985Z,6.99
2022-09-30T08:14:04.093Z,7.00
2022-09-30T08:16:32.000Z,7.06
2022-09-30T08:19:01.266Z,7.15
2022-09-30T08:21:29.205Z,7.13
2022-09-30T08:23:55.596Z,7.12
2022-09-30T08:26:22.016Z,7.17
2022-09-30T08:28:48.629Z,7.19
2022-09-30T08:31:17.554Z,7.23
2022-09-30T08:33:44.378Z,7.26
2022-09-30T08:36:13.423Z,7.27
2022-09-30T08:38:40.291Z,7.31
2022-09-30T08:41:37.216Z,7.35
2022-09-30T08:44:25.374Z,7.36
2022-09-30T08:47:12.628Z,7.36
2022-09-30T08:50:12.079Z,7.43
2022-09-30T08:52:50.211Z,7.50
2022-09-30T08:55:22.941Z,7.61
2022-09-30T08:57:52.027Z,7.63
2022-09-30T09:00:19.416Z,7.65
2022-09-30T09:02:58.178Z,7.72
2022-09-30T09:05:56.677Z,7.81
2022-09-30T09:09:20.339Z,7.83
2022-09-30T09:12:14.349Z,7.84
2022-09-30T09:14:56.443Z,7.85
2022-09-30T09:17:38.091Z,7.86
2022-09-30T09:20:37.388Z,7.94
2022-09-30T09:23:08.165Z,7.97
2022-09-30T09:25:34.816Z,8.06
2022-09-30T09:28:06.122Z,8.13
2022-09-30T09:30:43.459Z,8.17
2022-09-30T09:33:22.861Z,8.22
2022-09-30T09:36:23.391Z,8.24
2022-09-30T09:39:16.029Z,8.30
2022-09-30T09:42:17.040Z,8.46
2022-09-30T09:45:10.941Z,8.49
2022-09-30T09:47:37.445Z,8.60
2022-09-30T09:50:14.970Z,8.71
2022-09-30T09:53:03.207Z,8.73
2022-09-30T09:55:29.655Z,8.69
2022-09-30T09:58:26.179Z,8.70
2022-09-30T10:00:52.792Z,8.74
2022-09-30T10:03:26.280Z,8.78
2022-09-30T10:06:09.083Z,8.77
2022-09-30T10:08:52.106Z,8.79
2022-09-30T10:11:23.143Z,8.83
2022-09-30T10:13:51.139Z,8.87
2022-09-30T10:16:23.604Z,8.89
2022-09-30T10:18:50.054Z,8.97
2022-09-30T10:21:22.746Z,9.03
2022-09-30T10:23:49.248Z,9.03
2022-09-30T10:26:15.682Z,9.05
2022-09-30T10:28:49.147Z,9.00
2022-09-30T10:31:35.582Z,9.12
2022-09-30T10:34:34.487Z,9.35
2022-09-30T10:37:16.564Z,9.48
2022-09-30T10:39:48.763Z,9.71
2022-09-30T10:42:23.598Z,9.71
2022-09-30T10:44:55.711Z,9.58
2022-09-30T10:47:26.209Z,9.63
2022-09-30T10:50:04.774Z,9.79
2022-09-30T10:52:34.844Z,9.87
2022-09-30T10:55:12.685Z,10.10
2022-09-30T10:57:42.267Z,10.11
2022-09-30T11:00:18.829Z,10.10
2022-09-30T11:02:54.154Z,10.05
2022-09-30T11:05:27.026Z,10.09
2022-09-30T11:08:01.721Z,10.17
2022-09-30T11:10:34.099Z,10.09
2022-09-30T11:13:19.355Z,10.22
2022-09-30T11:16:19.820Z,10.18
2022-09-30T11:18:53.081Z,10.26
2022-09-30T11:21:22.616Z,10.54
2022-09-30T11:24:00.728Z,10.56
2022-09-30T11:27:16.627Z,10.59
2022-09-30T11:30:01.268Z,10.72
2022-09-30T11:32:39.912Z,10.74
2022-09-30T11:35:21.489Z,10.89
2022-09-30T11:38:02.619Z,11.06
2022-09-30T11:41:04.330Z,11.12
2022-09-30T11:44:02.218Z,11.17
2022-09-30T11:46:44.733Z,11.28
2022-09-30T11:49:28.251Z,11.20
2022-09-30T11:52:00.616Z,11.12
2022-09-30T11:54:48.355Z,11.12
2022-09-30T11:57:45.928Z,11.36
2022-09-30T12:00:12.319Z,11.43
2022-09-30T12:02:44.489Z,11.57
2022-09-30T12:05:19.047Z,11.66
2022-09-30T12:08:04.689Z,11.63
2022-09-30T12:10:40.495Z,11.69
2022-09-30T12:13:14.006Z,11.53
2022-09-30T12:15:44.631Z,11.42
2022-09-30T12:18:16.847Z,11.22
2022-09-30T12:21:16.434Z,11.09
2022-09-30T12:23:53.214Z,11.09
2022-09-30T12:26:19.823Z,11.35
2022-09-30T12:29:15.081Z,11.70
2022-09-30T12:32:09.321Z,11.93
2022-09-30T12:35:20.950Z,12.19
2022-09-30T12:38:03.213Z,12.15
2022-09-30T12:40:52.332Z,12.08
2022-09-30T12:43:38.661Z,12.05
2022-09-30T12:46:14.840Z,12.36
2022-09-30T12:48:55.821Z,12.59
2022-09-30T12:51:48.953Z,12.81
2022-09-30T12:54:21.955Z,12.88
2022-09-30T12:56:56.059Z,12.94
2022-09-30T12:59:28.051Z,12.92
2022-09-30T13:01:56.524Z,12.89
2022-09-30T13:04:35.174Z,12.81
2022-09-30T13:07:01.748Z,12.82
2022-09-30T13:09:36.880Z,12.65
2022-09-30T13:12:03.226Z,12.68
2022-09-30T13:14:43.296Z,12.53
2022-09-30T13:17:13.157Z,12.39
2022-09-30T13:19:44.878Z,12.36
2022-09-30T13:22:20.835Z,12.45
2022-09-30T13:25:05.529Z,12.48
2022-09-30T13:28:10.780Z,12.49
2022-09-30T13:30:38.309Z,12.45
2022-09-30T13:33:25.975Z,12.59
2022-09-30T13:35:52.853Z,12.56
2022-09-30T13:38:24.353Z,12.53
2022-09-30T13:41:02.267Z,12.53
2022-09-30T13:43:35.612Z,12.47
2022-09-30T13:46:13.151Z,12.43
2022-09-30T13:48:44.907Z,12.38
2022-09-30T13:51:15.517Z,12.39
2022-09-30T13:53:47.295Z,12.45
2022-09-30T13:56:36.128Z,12.68
2022-09-30T13:59:15.122Z,12.63
2022-09-30T14:01:53.647Z,12.50
2022-09-30T14:04:47.415Z,12.50
2022-09-30T14:07:32.667Z,12.52
2022-09-30T14:10:10.867Z,12.76
2022-09-30T14:12:46.387Z,12.76
2022-09-30T14:15:42.495Z,12.57
2022-09-30T14:18:32.075Z,12.51
2022-09-30T14:21:27.431Z,12.73
2022-09-30T14:24:00.284Z,12.78
2022-09-30T14:26:33.194Z,12.73
2022-09-30T14:29:27.090Z,12.78
2022-09-30T14:31:53.699Z,12.78
2022-09-30T14:34:22.669Z,12.58
2022-09-30T14:36:51.197Z,12.44
2022-09-30T14:39:23.433Z,12.59
2022-09-30T14:41:53.499Z,12.63
2022-09-30T14:44:21.350Z,12.68
2022-09-30T14:46:50.504Z,12.96
2022-09-30T14:49:22.486Z,13.11
2022-09-30T14:51:49.143Z,13.07
2022-09-30T14:54:23.837Z,12.87
2022-09-30T14:56:54.628Z,12.73
2022-09-30T14:59:23.648Z,12.58
2022-09-30T15:01:55.396Z,12.49
2022-09-30T15:04:26.222Z,12.42
2022-09-30T15:06:53.805Z,12.40
2022-09-30T15:09:29.054Z,12.35
2022-09-30T15:11:55.824Z,12.41
2022-09-30T15:14:23.742Z,12.37
2022-09-30T15:16:55.226Z,12.30
2022-09-30T15:19:35.036Z,12.34
2022-09-30T15:22:04.788Z,12.25
2022-09-30T15:24:34.357Z,12.24
2022-09-30T15:27:02.718Z,12.17
2022-09-30T15:29:29.228Z,12.13
2022-09-30T15:32:15.650Z,12.20
2022-09-30T15:34:46.046Z,12.16
2022-09-30T15:37:33.619Z,12.14
2022-09-30T15:40:20.473Z,12.15
2022-09-30T15:42:57.056Z,12.23
2022-09-30T15:45:35.542Z,12.34
2022-09-30T15:48:26.917Z,12.35
2022-09-30T15:50:57.448Z,12.55
2022-09-30T15:53:31.273Z,12.63
2022-09-30T15:56:16.601Z,12.77
2022-09-30T15:58:55.885Z,12.64
2022-09-30T16:01:50.645Z,12.50
2022-09-30T16:04:17.233Z,12.49
2022-09-30T16:06:54.983Z,12.40
2022-09-30T16:09:34.921Z,12.34
2022-09-30T16:12:13.636Z,12.32
2022-09-30T16:14:48.798Z,12.30
2022-09-30T16:17:38.056Z,12.29
2022-09-30T16:20:09.310Z,12.41
2022-09-30T16:22:52.535Z,12.55
2022-09-30T16:25:28.745Z,12.65
2022-09-30T16:27:59.433Z,12.56
2022-09-30T16:30:26.686Z,12.44
2022-09-30T16:32:58.134Z,12.29
2022-09-30T16:35:26.950Z,12.13
2022-09-30T16:38:06.074Z,12.13
2022-09-30T16:40:35.589Z,12.08
2022-09-30T16:43:07.097Z,12.02
2022-09-30T16:45:34.724Z,11.99
2022-09-30T16:48:01.978Z,11.93
2022-09-30T16:50:48.682Z,11.83
2022-09-30T16:53:15.166Z,11.75
2022-09-30T16:55:41.805Z,11.68
2022-09-30T16:58:12.171Z,11.60
2022-09-30T17:00:44.334Z,11.52
2022-09-30T17:03:15.707Z,11.44
2022-09-30T17:05:46.863Z,11.38
2022-09-30T17:08:15.067Z,11.32
2022-09-30T17:10:47.407Z,11.26
2022-09-30T17:13:17.217Z,11.23
2022-09-30T17:15:48.555Z,11.19
2022-09-30T17:18:15.189Z,11.15
2022-09-30T17:20:52.487Z,11.11
2022-09-30T17:23:20.719Z,11.07
2022-09-30T17:25:47.266Z,11.03
2022-09-30T17:28:14.518Z,11.03
2022-09-30T17:30:41.404Z,11.01
2022-09-30T17:33:09.929Z,10.99
2022-09-30T17:35:40.445Z,10.97
2022-09-30T17:38:12.211Z,10.94
2022-09-30T17:40:58.074Z,10.92
2022-09-30T17:43:24.654Z,10.90
2022-09-30T17:45:52.143Z,10.87
2022-09-30T17:48:18.931Z,10.84
2022-09-30T17:50:47.853Z,10.82
2022-09-30T17:53:18.059Z,10.82
2022-09-30T17:55:47.905Z,10.80
2022-09-30T17:58:18.038Z,10.80
2022-09-30T18:00:45.181Z,10.77
2022-09-30T18:03:12.120Z,10.78
2022-09-30T18:05:38.928Z,10.78
2022-09-30T18:08:06.127Z,10.76
2022-09-30T18:10:35.390Z,10.79
2022-09-30T18:13:02.048Z,10.78
2022-09-30T18:15:28.494Z,10.78
2022-09-30T18:17:55.087Z,10.76
2022-09-30T18:20:24.814Z,10.77
2022-09-30T18:22:53.413Z,10.76
2022-09-30T18:25:19.926Z,10.75
2022-09-30T18:28:09.410Z,10.76
2022-09-30T18:30:37.081Z,10.75
2022-09-30T18:33:07.037Z,10.73
2022-09-30T18:35:38.862Z,10.73
2022-09-30T18:38:06.818Z,10.72
2022-09-30T18:40:33.795Z,10.72
2022-09-30T18:43:14.118Z,10.70
2022-09-30T18:45:43.156Z,10.71
2022-09-30T18:48:10.309Z,10.71
2022-09-30T18:50:37.344Z,10.72
2022-09-30T18:53:09.483Z,10.70
2022-09-30T18:55:39.712Z,10.70
2022-09-30T18:58:06.569Z,10.71
2022-09-30T19:00:33.173Z,10.71
2022-09-30T19:02:59.678Z,10.69
2022-09-30T19:05:26.775Z,10.69
2022-09-30T19:07:54.162Z,10.68
2022-09-30T19:10:21.430Z,10.69
2022-09-30T19:12:47.926Z,10.65
2022-09-30T19:15:17.779Z,10.64
2022-09-30T19:17:45.018Z,10.63
2022-09-30T19:20:13.961Z,10.62
2022-09-30T19:22:40.664Z,10.60
2022-09-30T19:25:11.048Z,10.61
2022-09-30T19:27:39.153Z,10.60
2022-09-30T19:30:06.564Z,10.57
2022-09-30T19:32:35.947Z,10.56
2022-09-30T19:35:06.996Z,10.55
2022-09-30T19:37:34.266Z,10.55
2022-09-30T19:40:10.187Z,10.54
2022-09-30T19:42:42.666Z,10.56
2022-09-30T19:45:09.212Z,10.57
2022-09-30T19:47:36.529Z,10.54
2022-09-30T19:50:04.296Z,10.54
2022-09-30T19:52:30.914Z,10.52
2022-09-30T19:55:05.449Z,10.52
2022-09-30T19:57:37.483Z,10.48
2022-09-30T20:00:05.496Z,10.48
2022-09-30T20:02:32.390Z,10.45
2022-09-30T20:05:00.418Z,10.44
2022-09-30T20:07:28.147Z,10.42
2022-09-30T20:09:54.715Z,10.40
2022-09-30T20:12:21.286Z,10.40
2022-09-30T20:15:06.163Z,10.38
2022-09-30T20:17:32.768Z,10.36
2022-09-30T20:20:17.921Z,10.35
2022-09-30T20:22:44.396Z,10.37
2022-09-30T20:25:11.205Z,10.36
2022-09-30T20:27:39.166Z,10.35
2022-09-30T20:30:06.503Z,10.35
2022-09-30T20:32:33.066Z,10.36
2022-09-30T20:34:59.678Z,10.40
2022-09-30T20:37:26.302Z,10.41
2022-09-30T20:39:52.931Z,10.39
2022-09-30T20:42:19.389Z,10.38
2022-09-30T20:44:45.899Z,10.40
2022-09-30T20:47:12.538Z,10.42
2022-09-30T20:49:39.167Z,10.42
2022-09-30T20:52:06.092Z,10.41
2022-09-30T20:54:35.471Z,10.43
2022-09-30T20:57:07.174Z,10.43
2022-09-30T20:59:34.435Z,10.43
2022-09-30T21:02:00.942Z,10.53
2022-09-30T21:04:28.316Z,10.52
2022-09-30T21:06:54.852Z,10.52
2022-09-30T21:09:26.642Z,10.53
2022-09-30T21:11:53.227Z,10.52
2022-09-30T21:14:19.789Z,10.59
2022-09-30T21:16:46.324Z,10.65
2022-09-30T21:19:12.788Z,10.65
2022-09-30T21:21:39.277Z,10.62
2022-09-30T21:24:05.929Z,10.62
2022-09-30T21:26:32.844Z,10.61
2022-09-30T21:29:00.008Z,10.59
2022-09-30T21:31:27.798Z,10.62
2022-09-30T21:33:58.568Z,10.62
2022-09-30T21:36:26.734Z,10.62
2022-09-30T21:38:55.022Z,10.61
2022-09-30T21:41:23.096Z,10.61
2022-09-30T21:43:49.721Z,10.64
2022-09-30T21:46:18.647Z,10.67
2022-09-30T21:48:48.335Z,10.65
2022-09-30T21:51:15.043Z,10.60
2022-09-30T21:53:42.092Z,10.57
2022-09-30T21:56:12.464Z,10.53
2022-09-30T21:58:39.395Z,10.50
2022-09-30T22:01:07.679Z,10.48
2022-09-30T22:03:38.025Z,10.49
2022-09-30T22:06:10.513Z,10.47
2022-09-30T22:08:41.927Z,10.46
2022-09-30T22:11:14.835Z,10.45
2022-09-30T22:13:48.616Z,10.43
2022-09-30T22:16:15.778Z,10.43
2022-09-30T22:18:43.090Z,10.44
2022-09-30T22:21:14.446Z,10.44
2022-09-30T22:23:41.576Z,10.43
2022-09-30T22:26:14.812Z,10.47
2022-09-30T22:28:41.553Z,10.48
2022-09-30T22:31:21.757Z,10.47
2022-09-30T22:34:10.096Z,10.48
2022-09-30T22:36:55.915Z,10.48
2022-09-30T22:39:23.835Z,10.51
2022-09-30T22:41:58.330Z,10.48
2022-09-30T22:44:28.226Z,10.48
2022-09-30T22:46:57.780Z,10.47
2022-09-30T22:49:25.549Z,10.52
2022-09-30T22:51:57.269Z,10.54
2022-09-30T22:54:25.525Z,10.55
2022-09-30T22:56:54.612Z,10.55
2022-09-30T22:59:23.215Z,10.58
2022-09-30T23:01:49.792Z,10.57
2022-09-30T23:04:17.320Z,10.56
2022-09-30T23:06:46.505Z,10.55
2022-09-30T23:09:12.897Z,10.58
2022-09-30T23:11:39.312Z,10.57
2022-09-30T23:14:05.746Z,10.56
2022-09-30T23:16:32.503Z,10.61
2022-09-30T23:18:59.029Z,10.57
2022-09-30T23:21:25.819Z,10.59
2022-09-30T23:23:53.348Z,10.59
2022-09-30T23:26:25.174Z,10.59
2022-09-30T23:29:03.018Z,10.59
2022-09-30T23:31:30.379Z,10.59
2022-09-30T23:33:59.526Z,10.60
2022-09-30T23:36:29.779Z,10.57
2022-09-30T23:39:02.664Z,10.58
2022-09-30T23:41:31.324Z,10.57
2022-09-30T23:43:58.317Z,10.59
2022-09-30T23:46:24.913Z,10.57
2022-09-30T23:48:51.384Z,10.60
2022-09-30T23:51:19.139Z,10.61
2022-09-30T23:53:46.248Z,10.62
2022-09-30T23:56:15.462Z,10.58
2022-09-30T23:58:43.482Z,10.55
